Time;durP1;ratioP1;P1;durP2;ratioP2;P2;SDS_P1;SDS_P2;PMS_P1;PMS_P2;Temp;Humidity;BMP_temperature;BMP_pressure;BME280_temperature;BME280_humidity;BME280_pressure;Samples;Min_cycle;Max_cycle;Signal;HPM_P1;HPM_P2
2022/01/04 00:00:06;;;;;;;29.50;6.70;;;;;;;8.36;95.32;100087.53;5015362;28;20037;-40
2022/01/04 00:02:31;;;;;;;;;;;;;;;8.35;95.47;100089.41;5014556;28;20046;-41
2022/01/04 00:04:57;;;;;;;38.05;7.03;;;;;;;8.36;95.32;100079.50;5015772;28;20468;-40
2022/01/04 00:07:22;;;;;;;48.40;6.43;;;;;;;8.37;95.48;100078.47;5015580;28;20028;-41
2022/01/04 00:09:49;;;;;;;32.40;6.90;;;;;;;8.36;95.74;100069.59;5015356;28;20034;-41
2022/01/04 00:14:59;;;;;;;37.85;7.85;;;;;;;8.34;95.37;100068.94;5015753;28;20603;-41
2022/01/04 00:17:25;;;;;;;37.58;7.38;;;;;;;8.34;95.17;100052.03;5015379;28;20030;-41
2022/01/04 00:19:50;;;;;;;37.30;6.72;;;;;;;8.34;95.29;100052.03;5014318;28;20061;-41
2022/01/04 00:22:15;;;;;;;50.75;8.32;;;;;;;8.35;95.52;100034.94;5014888;28;20124;-41
2022/01/04 00:24:41;;;;;;;36.72;7.28;;;;;;;8.33;95.51;100040.50;5014832;28;20141;-42
2022/01/04 00:27:06;;;;;;;36.92;7.68;;;;;;;8.33;95.17;100040.50;5015031;28;20064;-41
2022/01/04 00:29:32;;;;;;;41.47;8.50;;;;;;;8.31;95.31;100026.44;5013960;28;20042;-42
2022/01/04 00:31:57;;;;;;;41.53;11.25;;;;;;;8.31;95.16;100026.44;5014989;28;20026;-41
2022/01/04 00:34:22;;;;;;;55.75;13.82;;;;;;;8.32;95.49;100021.91;5014989;28;20030;-41
2022/01/04 00:36:48;;;;;;;33.45;10.13;;;;;;;8.29;95.32;100011.56;5015080;28;20100;-41
2022/01/04 00:39:13;;;;;;;43.65;10.00;;;;;;;8.29;95.52;100014.22;5015028;28;20172;-42
2022/01/04 00:41:38;;;;;;;34.40;8.13;;;;;;;8.30;95.35;100011.38;5014644;28;20026;-42
2022/01/04 00:44:04;;;;;;;36.72;7.78;;;;;;;8.29;95.44;100012.41;5015138;28;20460;-41
2022/01/04 00:46:29;;;;;;;41.65;8.43;;;;;;;8.28;95.32;100008.03;4997270;28;20030;-42
2022/01/04 00:49:10;;;;;;;36.13;8.65;;;;;;;8.28;95.13;100004.53;5014501;28;20375;-41
2022/01/04 00:51:40;;;;;;;36.17;8.88;;;;;;;8.29;95.19;99995.47;5007674;28;20026;-41
2022/01/04 00:54:05;;;;;;;46.28;10.02;;;;;;;8.31;95.09;99996.94;5012816;28;20080;-41
2022/01/04 00:56:31;;;;;;;39.90;8.98;;;;;;;8.33;95.06;99991.41;5014696;28;20478;-40
2022/01/04 00:58:56;;;;;;;32.13;8.75;;;;;;;8.29;95.35;99993.66;5014436;28;20109;-41
2022/01/04 01:01:22;;;;;;;38.33;8.82;;;;;;;8.25;95.27;99986.97;5012817;28;20073;-40
2022/01/04 01:03:47;;;;;;;30.55;8.65;;;;;;;8.27;95.26;99986.81;5014616;28;20105;-41
2022/01/04 01:06:12;;;;;;;30.13;9.07;;;;;;;8.25;95.25;99983.47;5014801;28;20393;-42
2022/01/04 01:08:38;;;;;;;32.90;11.15;;;;;;;8.22;95.09;99978.50;5013039;28;20525;-41
2022/01/04 01:11:05;;;;;;;29.30;10.15;;;;;;;8.22;95.32;99967.78;5014508;28;20030;-40
2022/01/04 01:13:30;;;;;;;36.75;10.13;;;;;;;8.22;95.00;99976.63;5014036;28;20057;-40
2022/01/04 01:15:56;;;;;;;45.60;10.38;;;;;;;8.22;95.19;99965.91;5014375;28;20060;-41
2022/01/04 01:18:21;;;;;;;35.33;10.68;;;;;;;8.24;94.89;99965.72;5014130;28;20046;-40
2022/01/04 01:20:49;;;;;;;32.75;10.95;;;;;;;8.24;95.06;99960.34;5012516;28;20030;-40
2022/01/04 01:23:14;;;;;;;;;;;;;;;8.22;95.19;99957.88;5013905;28;20470;-41
2022/01/04 01:25:40;;;;;;;30.85;10.75;;;;;;;8.24;95.17;99960.34;5013858;28;19909;-40
2022/01/04 01:28:05;;;;;;;31.88;10.15;;;;;;;8.25;95.07;99954.00;5014217;28;20101;-42
2022/01/04 01:30:34;;;;;;;33.65;10.70;;;;;;;8.25;94.90;99954.81;5013877;28;20022;-40
2022/01/04 01:32:59;;;;;;;36.10;10.48;;;;;;;8.26;95.03;99955.63;5013709;28;20486;-41
2022/01/04 01:35:25;;;;;;;37.22;10.80;;;;;;;8.26;94.89;99950.28;5013895;28;20080;-41
2022/01/04 01:37:50;;;;;;;28.10;10.35;;;;;;;8.26;95.23;99955.63;5013765;28;20026;-40
2022/01/04 01:40:16;;;;;;;36.67;9.98;;;;;;;8.27;94.87;99943.91;5013585;28;20116;-40
2022/01/04 01:42:41;;;;;;;33.70;10.63;;;;;;;8.27;94.72;99933.19;5013321;28;20045;-41
2022/01/04 01:45:09;;;;;;;33.17;9.77;;;;;;;8.27;94.91;99927.84;5028855;28;20033;-41
2022/01/04 01:47:37;;;;;;;30.83;10.13;;;;;;;8.26;94.99;99920.78;5013707;28;20457;-40
2022/01/04 01:50:02;;;;;;;35.50;10.63;;;;;;;8.23;94.56;99919.31;5013460;28;20025;-40
2022/01/04 01:52:28;;;;;;;33.28;10.50;;;;;;;8.22;94.96;99922.22;5013083;28;20499;-41
2022/01/04 01:54:53;;;;;;;31.70;9.52;;;;;;;8.21;94.69;99924.03;5013403;28;20037;-42
2022/01/04 01:57:19;;;;;;;33.85;10.48;;;;;;;8.20;95.05;99919.69;5013431;28;20029;-41
2022/01/04 01:59:45;;;;;;;30.00;9.35;;;;;;;8.18;95.00;99902.97;4996045;28;20037;-41
2022/01/04 02:02:10;;;;;;;31.25;8.73;;;;;;;8.18;94.68;99911.00;5012722;28;20073;-41
2022/01/04 02:04:35;;;;;;;33.83;8.98;;;;;;;8.19;94.88;99903.78;5013299;28;20029;-41
2022/01/04 02:07:01;;;;;;;32.75;9.65;;;;;;;8.19;94.87;99901.13;5012187;28;20049;-41
2022/01/04 02:09:26;;;;;;;28.98;8.20;;;;;;;8.16;94.82;99904.19;5012603;28;20041;-41
2022/01/04 02:11:53;;;;;;;29.85;8.35;;;;;;;8.17;95.08;99889.78;5013175;28;20037;-41
2022/01/04 02:14:19;;;;;;;31.50;8.00;;;;;;;8.16;94.87;99890.78;5013618;28;20030;-41
2022/01/04 02:16:44;;;;;;;32.65;8.00;;;;;;;8.17;94.91;99889.78;5013283;28;20026;-41
2022/01/04 02:19:10;;;;;;;33.78;7.95;;;;;;;8.16;94.76;99883.56;5025192;28;20065;-46
2022/01/04 02:21:36;;;;;;;27.92;7.78;;;;;;;8.12;95.01;99877.75;5014232;28;20053;-41
2022/01/04 02:24:02;;;;;;;24.80;7.50;;;;;;;8.10;95.02;99879.78;5011233;28;20025;-41
2022/01/04 02:26:31;;;;;;;40.35;9.32;;;;;;;8.10;95.05;99874.44;5012843;28;20061;-43
2022/01/04 02:28:57;;;;;;;35.20;8.85;;;;;;;8.10;95.22;99882.47;5013020;28;20026;-41
2022/01/04 02:31:22;;;;;;;38.88;9.32;;;;;;;8.11;94.98;99870.75;5020443;28;20499;-41
2022/01/04 02:33:48;;;;;;;25.95;7.90;;;;;;;8.11;95.00;99865.41;5030038;28;20037;-42
2022/01/04 02:36:13;;;;;;;25.67;7.80;;;;;;;8.10;95.24;99858.34;5026341;28;20034;-41
2022/01/04 02:38:38;;;;;;;44.38;9.10;;;;;;;8.07;95.35;99847.19;5012707;28;20029;-41
2022/01/04 02:41:04;;;;;;;47.22;8.30;;;;;;;8.04;95.50;99845.72;5012231;28;20431;-41
2022/01/04 02:43:29;;;;;;;36.97;7.90;;;;;;;8.02;95.73;99844.25;5012364;28;20038;-42
2022/01/04 02:45:55;;;;;;;32.50;7.97;;;;;;;8.02;95.40;99844.25;5012514;28;20028;-41
2022/01/04 02:48:20;;;;;;;33.45;8.27;;;;;;;8.00;95.79;99840.94;5012625;28;20494;-41
2022/01/04 02:50:46;;;;;;;38.90;8.73;;;;;;;7.98;95.41;99837.59;5010570;28;20025;-41
2022/01/04 02:53:11;;;;;;;41.28;10.80;;;;;;;7.97;95.56;99842.13;5011882;28;20030;-41
2022/01/04 02:55:37;;;;;;;37.58;9.15;;;;;;;7.96;95.68;99829.78;5012264;28;20125;-41
2022/01/04 02:58:02;;;;;;;37.58;9.15;;;;;;;7.97;95.79;99830.59;5012442;28;20034;-41
2022/01/04 03:00:28;;;;;;;39.75;8.85;;;;;;;7.96;95.69;99827.09;5012221;28;20053;-41
2022/01/04 03:02:54;;;;;;;44.33;8.50;;;;;;;7.98;95.58;99814.34;5012105;28;20144;-40
2022/01/04 03:05:19;;;;;;;41.25;9.02;;;;;;;7.97;96.13;99809.97;5012341;28;20218;-41
2022/01/04 03:07:44;;;;;;;32.47;8.23;;;;;;;7.96;95.67;99802.97;5012286;28;20026;-43
2022/01/04 03:10:10;;;;;;;46.70;9.68;;;;;;;7.97;95.55;99804.63;5010517;28;20101;-41
2022/01/04 03:12:39;;;;;;;34.75;8.80;;;;;;;7.98;95.93;99787.53;5012084;28;20130;-41
2022/01/04 03:15:04;;;;;;;44.53;11.23;;;;;;;8.02;95.70;99794.16;5012320;28;20428;-41
2022/01/04 03:17:30;;;;;;;44.17;11.27;;;;;;;8.00;95.83;99798.06;5013191;28;20068;-41
2022/01/04 03:19:55;;;;;;;35.17;11.95;;;;;;;7.99;95.51;99781.16;5015807;28;20029;-41
2022/01/04 03:22:21;;;;;;;37.45;11.77;;;;;;;8.02;95.55;99769.22;5015720;28;20030;-41
2022/01/04 03:24:46;;;;;;;49.55;12.82;;;;;;;8.01;95.79;99763.03;5015908;28;20026;-41
2022/01/04 03:27:12;;;;;;;35.38;12.45;;;;;;;8.04;95.22;99772.56;5016247;28;20033;-42
2022/01/04 03:29:38;;;;;;;43.80;13.38;;;;;;;8.01;94.92;99768.41;5015754;28;20076;-41
2022/01/04 03:32:04;;;;;;;42.42;14.30;;;;;;;8.04;95.40;99761.84;5015546;28;20026;-42
2022/01/04 03:34:29;;;;;;;44.65;15.32;;;;;;;8.04;95.14;99749.25;5015953;28;20021;-41
2022/01/04 03:36:54;;;;;;;36.63;14.13;;;;;;;8.07;95.02;99740.00;5015921;28;20062;-42
2022/01/04 03:39:19;;;;;;;41.58;15.00;;;;;;;8.05;94.47;99742.88;5015819;28;20026;-41
2022/01/04 03:41:46;;;;;;;37.42;15.30;;;;;;;7.96;95.04;99744.03;5015262;28;20034;-41
2022/01/04 03:44:19;;;;;;;45.83;16.75;;;;;;;7.95;95.18;99736.19;5015843;28;20041;-42
2022/01/04 03:46:51;;;;;;;35.72;15.02;;;;;;;7.97;94.92;99740.31;5015935;28;20030;-42
2022/01/04 03:49:16;;;;;;;39.88;15.23;;;;;;;8.00;95.12;99736.44;5015511;28;20121;-41
2022/01/04 03:51:42;;;;;;;50.65;17.85;;;;;;;7.95;94.71;99731.63;5015442;28;20062;-41
2022/01/04 03:54:07;;;;;;;38.30;16.60;;;;;;;7.95;94.98;99720.91;5015126;28;20033;-41
2022/01/04 03:56:33;;;;;;;48.75;17.08;;;;;;;7.97;95.15;99708.16;5015650;28;20026;-41
2022/01/04 03:58:58;;;;;;;37.47;16.48;;;;;;;7.97;95.15;99702.00;5014230;28;20025;-41
2022/01/04 04:01:23;;;;;;;45.78;16.40;;;;;;;7.96;94.64;99714.56;5015277;28;20057;-41
2022/01/04 04:03:49;;;;;;;43.83;16.35;;;;;;;7.97;94.91;99712.72;5013842;28;20030;-41
2022/01/04 04:06:14;;;;;;;43.90;16.23;;;;;;;7.95;94.81;99710.22;5015244;28;20342;-41
2022/01/04 04:08:40;;;;;;;55.03;17.90;;;;;;;7.94;94.46;99703.19;5015203;28;20026;-41
2022/01/04 04:11:05;;;;;;;35.92;17.08;;;;;;;7.90;94.58;99705.44;5015413;28;20026;-40
2022/01/04 04:13:30;;;;;;;38.78;16.90;;;;;;;7.90;94.52;99700.09;5017018;28;20030;-40
2022/01/04 04:15:56;;;;;;;37.70;16.67;;;;;;;7.87;94.42;99705.84;5015283;28;20022;-41
2022/01/04 04:18:21;;;;;;;37.60;16.77;;;;;;;7.89;94.91;99695.75;5015321;28;20108;-41
2022/01/04 04:20:47;;;;;;;41.97;17.65;;;;;;;7.87;94.95;99696.94;5013632;28;20030;-41
2022/01/04 04:23:12;;;;;;;40.03;17.73;;;;;;;7.89;94.96;99692.22;5014924;28;20073;-41
2022/01/04 04:25:38;;;;;;;40.97;16.55;;;;;;;7.90;95.01;99685.88;5015056;28;20030;-41
2022/01/04 04:28:03;;;;;;;43.65;17.17;;;;;;;7.91;94.65;99682.97;5014954;28;20026;-42
2022/01/04 04:30:29;;;;;;;41.55;16.92;;;;;;;7.89;94.78;99684.19;5014073;28;20030;-42
2022/01/04 04:32:54;;;;;;;43.70;17.50;;;;;;;7.86;94.76;99673.88;5014607;28;20107;-41
2022/01/04 04:35:20;;;;;;;37.88;16.20;;;;;;;7.87;94.60;99667.47;5014856;28;20100;-41
2022/01/04 04:37:45;;;;;;;45.67;18.25;;;;;;;7.87;94.92;99664.81;5013518;28;20464;-43
2022/01/04 04:40:11;;;;;;;37.70;17.50;;;;;;;7.87;94.76;99665.66;5014833;28;20486;-41
2022/01/04 04:42:36;;;;;;;33.33;16.50;;;;;;;7.87;94.97;99649.59;5014077;28;20061;-41
2022/01/04 04:45:03;;;;;;;35.50;15.93;;;;;;;7.88;95.19;99655.75;5014430;28;20025;-42
2022/01/04 04:47:28;;;;;;;40.60;15.57;;;;;;;7.86;95.25;99663.16;5014523;28;20084;-41
2022/01/04 04:49:54;;;;;;;36.25;16.67;;;;;;;7.86;95.17;99674.69;5014739;28;20025;-42
2022/01/04 04:52:19;;;;;;;36.63;14.82;;;;;;;7.86;94.98;99652.44;5014210;28;20124;-42
2022/01/04 04:54:45;;;;;;;32.60;14.13;;;;;;;7.85;95.03;99659.66;5013008;28;20033;-41
2022/01/04 04:57:11;;;;;;;40.58;14.20;;;;;;;7.88;94.93;99663.81;5014736;28;20033;-42
2022/01/04 04:59:36;;;;;;;32.88;14.50;;;;;;;7.86;94.92;99650.59;5014526;28;20030;-42
2022/01/04 05:02:02;;;;;;;34.88;13.35;;;;;;;7.89;94.91;99658.22;5012489;28;20137;-41
2022/01/04 05:04:27;;;;;;;35.35;13.02;;;;;;;7.89;95.13;99655.56;5014207;28;20033;-42
2022/01/04 05:06:53;;;;;;;26.45;12.45;;;;;;;7.89;94.66;99644.00;5017651;28;20489;-41
2022/01/04 05:09:19;;;;;;;34.42;13.85;;;;;;;7.89;94.83;99638.66;5014241;28;20446;-42
2022/01/04 05:11:44;;;;;;;42.47;12.43;;;;;;;7.89;94.64;99652.06;5013811;28;20034;-42
2022/01/04 05:14:09;;;;;;;34.70;11.95;;;;;;;7.90;94.61;99637.66;5014078;28;20050;-41
2022/01/04 05:16:35;;;;;;;29.45;12.73;;;;;;;7.88;94.74;99634.34;5013822;28;20128;-42
2022/01/04 05:19:00;;;;;;;31.30;11.75;;;;;;;7.83;94.68;99626.06;5012723;28;20022;-41
2022/01/04 05:21:25;;;;;;;38.78;12.63;;;;;;;7.84;94.81;99633.06;5013738;28;20189;-42
2022/01/04 05:23:52;;;;;;;40.00;12.07;;;;;;;7.85;95.14;99634.72;5013716;28;20061;-41
2022/01/04 05:26:17;;;;;;;36.00;11.98;;;;;;;7.79;94.70;99627.44;5013766;28;20389;-42
2022/01/04 05:28:45;;;;;;;44.28;13.05;;;;;;;7.76;95.06;99630.50;5014080;28;20022;-42
2022/01/04 05:31:11;;;;;;;35.05;13.07;;;;;;;7.74;95.58;99625.38;5013420;28;20449;-42
2022/01/04 05:33:37;;;;;;;44.33;13.98;;;;;;;7.75;95.73;99623.50;5013799;28;20105;-41
2022/01/04 05:36:02;;;;;;;43.90;13.75;;;;;;;7.72;95.58;99623.91;5013627;28;20022;-42
2022/01/04 05:38:28;;;;;;;40.85;13.85;;;;;;;7.70;95.77;99619.56;5013618;28;20449;-41
2022/01/04 05:40:53;;;;;;;41.25;13.55;;;;;;;7.68;95.64;99621.59;5023714;28;20489;-41
2022/01/04 05:43:18;;;;;;;35.72;13.57;;;;;;;7.66;95.75;99626.34;5014058;28;20099;-41
2022/01/04 05:45:44;;;;;;;34.95;12.18;;;;;;;7.67;95.57;99614.59;5013196;28;20038;-41
2022/01/04 05:48:09;;;;;;;35.67;13.30;;;;;;;7.68;95.56;99605.53;5013224;28;20022;-41
2022/01/04 05:50:34;;;;;;;31.40;14.13;;;;;;;7.71;95.83;99601.63;5013370;28;20033;-41
2022/01/04 05:53:00;;;;;;;37.65;12.52;;;;;;;7.69;95.29;99599.16;5018899;28;20063;-42
2022/01/04 05:55:25;;;;;;;35.67;13.40;;;;;;;7.69;95.45;99601.84;5022202;28;20033;-41
2022/01/04 05:57:51;;;;;;;36.42;12.65;;;;;;;7.69;95.77;99601.84;5013101;28;20049;-42
2022/01/04 06:00:16;;;;;;;33.10;12.65;;;;;;;7.66;95.42;99588.84;5012939;28;20026;-42
2022/01/04 06:02:42;;;;;;;34.05;12.65;;;;;;;7.66;95.79;99599.56;5011588;28;20026;-41
2022/01/04 06:05:09;;;;;;;32.75;12.70;;;;;;;7.68;95.57;99597.50;5013363;28;20087;-42
2022/01/04 06:07:34;;;;;;;29.50;12.30;;;;;;;7.68;95.65;99592.13;5013601;28;20026;-42
2022/01/04 06:10:00;;;;;;;33.47;12.20;;;;;;;7.70;95.77;99594.63;5012824;28;20390;-42
2022/01/04 06:15:03;;;;;;;35.95;12.20;;;;;;;7.76;95.45;99587.66;5013100;28;20034;-41
2022/01/04 06:17:49;;;;;;;31.00;11.82;;;;;;;7.74;95.68;99593.22;5012481;28;20478;-42
2022/01/04 06:20:17;;;;;;;32.63;13.13;;;;;;;7.73;95.33;99588.06;5013368;28;20116;-41
2022/01/04 06:22:43;;;;;;;35.53;12.20;;;;;;;7.72;95.65;99581.06;5016190;28;20033;-41
2022/01/04 06:25:16;;;;;;;32.70;11.18;;;;;;;7.70;95.67;99579.38;5013035;28;20026;-41
2022/01/04 06:27:42;;;;;;;27.42;11.90;;;;;;;7.72;95.74;99586.41;5016095;28;20049;-41
2022/01/04 06:30:08;;;;;;;31.60;11.43;;;;;;;7.70;95.26;99574.03;5012833;28;20026;-41
2022/01/04 06:32:36;;;;;;;37.50;12.70;;;;;;;7.70;95.48;99566.00;5013193;28;20385;-41
2022/01/04 06:35:01;;;;;;;42.60;13.40;;;;;;;7.72;95.36;99557.78;5012740;28;20030;-41
2022/01/04 06:37:26;;;;;;;39.95;12.77;;;;;;;7.73;95.58;99554.06;5012635;28;20500;-43
2022/01/04 06:39:51;;;;;;;46.60;12.50;;;;;;;7.76;95.54;99544.81;5012619;28;20069;-42
2022/01/04 06:42:17;;;;;;;34.17;10.85;;;;;;;7.74;95.69;99541.50;5012820;28;20022;-41
2022/01/04 06:44:43;;;;;;;42.33;12.07;;;;;;;7.75;95.72;99538.63;5012815;28;20112;-41
2022/01/04 06:47:09;;;;;;;43.65;12.25;;;;;;;7.75;95.77;99540.50;5010853;28;20026;-41
2022/01/04 06:49:35;;;;;;;31.40;11.60;;;;;;;7.79;95.74;99547.09;5012812;28;20022;-43
2022/01/04 06:52:00;;;;;;;41.53;12.02;;;;;;;7.79;95.95;99561.31;5011705;28;20032;-39
2022/01/04 06:54:25;;;;;;;33.22;10.90;;;;;;;7.77;95.78;99551.84;5011889;28;20037;-42
2022/01/04 06:56:51;;;;;;;38.60;12.35;;;;;;;7.76;95.73;99556.34;5016366;28;20030;-41
2022/01/04 06:59:17;;;;;;;33.83;11.85;;;;;;;7.79;96.46;99549.78;5012162;28;20060;-41
2022/01/04 07:01:43;;;;;;;36.95;13.43;;;;;;;7.80;97.09;99540.72;5012771;28;20639;-41
2022/01/04 07:04:10;;;;;;;43.03;13.45;;;;;;;7.78;97.27;99545.44;5013315;28;20160;-42
2022/01/04 07:06:35;;;;;;;42.03;15.65;;;;;;;7.76;97.92;99528.75;5028123;28;20521;-41
2022/01/04 07:09:03;;;;;;;42.35;16.83;;;;;;;7.75;98.19;99521.75;5012499;28;20033;-39
2022/01/04 07:11:29;;;;;;;46.78;15.77;;;;;;;7.74;98.37;99523.59;5012250;28;20084;-39
2022/01/04 07:13:54;;;;;;;39.22;15.13;;;;;;;7.76;98.06;99520.72;5012067;28;20033;-41
2022/01/04 07:16:20;;;;;;;45.08;15.88;;;;;;;7.77;98.17;99522.38;5012749;28;20037;-40
2022/01/04 07:18:48;;;;;;;44.65;15.98;;;;;;;7.79;98.53;99523.00;5021726;28;20022;-40
2022/01/04 07:21:17;;;;;;;40.17;14.35;;;;;;;7.78;98.53;99532.06;5031360;28;20095;-41
2022/01/04 07:23:43;;;;;;;34.15;11.65;;;;;;;7.72;97.84;99520.28;5012215;28;20084;-40
2022/01/04 07:26:14;;;;;;;38.88;13.40;;;;;;;7.72;97.82;99519.47;5027470;28;20030;-40
2022/01/04 07:28:43;;;;;;;38.90;12.95;;;;;;;7.73;98.03;99513.06;5019910;28;20042;-41
2022/01/04 07:31:09;;;;;;;31.17;14.45;;;;;;;7.70;98.16;99516.97;5011619;28;20018;-41
2022/01/04 07:33:35;;;;;;;48.13;16.02;;;;;;;7.75;98.41;99527.09;5013680;28;20416;-40
2022/01/04 07:36:00;;;;;;;36.58;15.18;;;;;;;7.74;98.39;99530.78;5030527;28;20034;-44
2022/01/04 07:38:26;;;;;;;45.80;13.88;;;;;;;7.77;98.73;99538.44;5031939;28;20025;-48
2022/01/04 07:40:51;;;;;;;35.60;9.70;;;;;;;7.73;98.81;99539.84;5009751;28;20359;-47
2022/01/04 07:43:16;;;;;;;32.88;8.30;;;;;;;7.74;98.39;99537.00;5010048;28;20312;-49
2022/01/04 07:45:42;;;;;;;25.85;6.25;;;;;;;7.69;97.50;99529.53;5012298;28;20442;-46
2022/01/04 07:48:10;;;;;;;36.08;6.10;;;;;;;7.55;96.92;99517.06;5015158;28;20034;-46
2022/01/04 07:50:37;;;;;;;18.10;3.58;;;;;;;7.51;96.79;99531.88;5012491;28;20022;-44
2022/01/04 07:53:03;;;;;;;22.33;3.35;;;;;;;7.45;96.05;99527.28;5021760;28;20041;-44
2022/01/04 07:55:28;;;;;;;17.75;3.88;;;;;;;7.45;96.45;99540.66;5023511;28;20485;-42
2022/01/04 07:57:53;;;;;;;20.88;3.50;;;;;;;7.44;96.47;99542.50;5026383;28;20021;-43
2022/01/04 08:00:20;;;;;;;20.83;2.70;;;;;;;7.39;96.52;99538.75;5027311;28;20037;-42
2022/01/04 08:02:45;;;;;;;21.27;2.60;;;;;;;7.33;96.08;99532.34;5014814;28;20037;-42
2022/01/04 08:05:11;;;;;;;25.33;3.13;;;;;;;7.34;95.37;99535.84;5020336;28;20042;-43
2022/01/04 08:07:37;;;;;;;16.27;2.60;;;;;;;7.34;95.41;99543.88;5027381;28;20571;-42
2022/01/04 08:10:04;;;;;;;22.70;2.95;;;;;;;7.33;95.43;99542.22;5016987;28;20026;-43
2022/01/04 08:12:30;;;;;;;28.45;2.85;;;;;;;7.33;95.30;99540.38;5002860;28;20036;-42
2022/01/04 08:14:55;;;;;;;14.40;2.78;;;;;;;7.33;94.74;99544.91;5033687;28;20033;-42
2022/01/04 08:17:21;;;;;;;20.08;4.93;;;;;;;7.37;95.54;99551.50;5022341;28;20017;-42
2022/01/04 08:19:46;;;;;;;27.92;5.00;;;;;;;7.34;95.91;99554.56;5015593;28;20053;-41
2022/01/04 08:22:11;;;;;;;31.48;4.25;;;;;;;7.34;96.41;99559.91;5027259;28;20017;-43
2022/01/04 08:24:37;;;;;;;32.67;4.45;;;;;;;7.32;96.99;99565.47;5034962;28;20524;-42
2022/01/04 08:27:02;;;;;;;25.00;4.53;;;;;;;7.34;97.53;99565.28;5016546;28;20030;-43
2022/01/04 08:29:29;;;;;;;26.05;4.43;;;;;;;7.36;97.68;99564.06;5026766;28;20033;-42
2022/01/04 08:31:54;;;;;;;29.77;4.40;;;;;;;7.40;97.65;99577.91;5033317;28;20068;-41
2022/01/04 08:34:20;;;;;;;22.30;4.40;;;;;;;7.47;97.95;99579.59;5025731;28;20064;-41
2022/01/04 08:36:45;;;;;;;29.98;5.00;;;;;;;7.53;98.10;99586.06;5018320;28;20030;-42
2022/01/04 08:39:14;;;;;;;26.90;5.00;;;;;;;7.59;98.18;99574.56;5022179;28;20033;-41
2022/01/04 08:41:45;;;;;;;41.17;5.28;;;;;;;7.65;98.30;99592.53;5011770;28;20061;-42
2022/01/04 08:44:11;;;;;;;41.00;6.05;;;;;;;7.72;98.30;99591.78;5028643;28;20043;-42
2022/01/04 08:46:37;;;;;;;47.28;6.65;;;;;;;7.74;98.18;99592.38;5022590;28;20025;-42
2022/01/04 08:49:03;;;;;;;46.67;4.72;;;;;;;7.77;97.67;99589.34;5017143;28;20113;-42
2022/01/04 08:51:29;;;;;;;48.28;4.97;;;;;;;7.79;97.88;99588.09;5015446;28;20025;-42
2022/01/04 08:53:54;;;;;;;37.65;4.20;;;;;;;7.83;97.64;99591.22;5018715;28;20117;-42
2022/01/04 08:56:19;;;;;;;36.92;4.60;;;;;;;7.86;97.64;99593.50;5034539;28;20389;-42
2022/01/04 08:58:45;;;;;;;36.97;5.30;;;;;;;7.85;97.04;99584.66;5027941;28;20036;-42
2022/01/04 09:01:10;;;;;;;35.20;4.82;;;;;;;7.88;97.14;99581.56;5014224;28;20054;-43
2022/01/04 09:03:35;;;;;;;49.20;4.88;;;;;;;7.93;97.24;99585.53;5025878;28;20030;-43
2022/01/04 09:06:01;;;;;;;42.50;4.50;;;;;;;7.96;96.78;99577.94;5034615;28;20028;-43
2022/01/04 09:08:26;;;;;;;28.38;4.15;;;;;;;8.00;96.81;99567.63;5019020;28;20485;-43
2022/01/04 09:10:52;;;;;;;42.60;4.40;;;;;;;8.03;96.27;99570.75;5014792;28;20032;-42
2022/01/04 09:13:20;;;;;;;31.17;3.95;;;;;;;8.04;95.50;99580.44;5013700;28;20042;-42
2022/01/04 09:18:45;;;;;;;37.95;4.78;;;;;;;8.11;94.12;99567.09;5014626;28;20033;-42
2022/01/04 09:21:16;;;;;;;40.90;4.88;;;;;;;8.15;93.79;99576.38;5029722;28;20121;-43
2022/01/04 09:23:43;;;;;;;34.63;3.92;;;;;;;8.17;93.63;99570.84;5014620;28;20081;-42
2022/01/04 09:26:09;;;;;;;37.10;4.13;;;;;;;8.18;93.55;99576.00;5014846;28;20034;-43
2022/01/04 09:28:35;;;;;;;37.58;4.43;;;;;;;8.18;93.33;99581.34;5017458;28;20029;-43
2022/01/04 09:31:00;;;;;;;36.38;3.88;;;;;;;8.18;93.22;99585.88;5013741;28;20105;-42
2022/01/04 09:33:26;;;;;;;32.63;3.50;;;;;;;8.17;92.65;99579.72;5017547;28;20033;-43
2022/01/04 09:35:51;;;;;;;41.20;4.68;;;;;;;8.19;91.98;99583.03;5013108;28;20041;-43
2022/01/04 09:38:18;;;;;;;22.13;3.50;;;;;;;8.23;91.06;99584.28;5013751;28;20062;-43
2022/01/04 09:40:43;;;;;;;31.90;3.55;;;;;;;8.22;90.76;99584.47;5011516;28;20528;-43
2022/01/04 09:43:09;;;;;;;25.35;4.40;;;;;;;8.27;90.48;99592.75;5032416;28;20030;-42
2022/01/04 09:45:35;;;;;;;36.35;5.75;;;;;;;8.26;90.46;99585.72;5016281;28;20030;-41
2022/01/04 09:48:01;;;;;;;52.72;6.78;;;;;;;8.28;90.54;99591.72;5013803;28;20474;-43
2022/01/04 09:50:26;;;;;;;36.83;4.78;;;;;;;8.31;90.86;99599.38;5014289;28;20041;-43
2022/01/04 09:52:55;;;;;;;33.17;5.93;;;;;;;8.31;90.68;99597.50;5015690;28;20474;-42
2022/01/04 09:55:20;;;;;;;30.35;4.18;;;;;;;8.31;89.61;99597.50;5013631;28;20045;-42
2022/01/04 09:57:46;;;;;;;27.92;4.53;;;;;;;8.30;90.11;99597.72;5013974;28;20070;-42
2022/01/04 10:00:16;;;;;;;34.38;4.45;;;;;;;8.27;90.88;99593.59;5013940;28;20478;-42
2022/01/04 10:02:43;;;;;;;29.20;3.63;;;;;;;8.31;90.68;99594.00;5013596;28;20105;-42
2022/01/04 10:05:20;;;;;;;30.58;4.72;;;;;;;8.26;89.75;99594.59;5012697;28;20049;-43
2022/01/04 10:07:46;;;;;;;29.07;4.00;;;;;;;8.26;89.59;99599.13;5013142;28;20037;-43
2022/01/04 10:10:14;;;;;;;36.45;3.72;;;;;;;8.25;90.29;99594.81;5012964;28;20034;-43
2022/01/04 10:12:50;;;;;;;36.90;4.32;;;;;;;8.25;90.33;99592.13;5012316;28;20026;-43
2022/01/04 10:15:35;;;;;;;37.47;4.65;;;;;;;8.24;88.72;99595.81;4995425;28;20033;-43
2022/01/04 10:18:17;;;;;;;29.60;3.88;;;;;;;8.32;89.15;99592.97;5028553;28;20034;-42
2022/01/04 10:20:45;;;;;;;28.50;4.75;;;;;;;8.33;88.33;99589.28;5012856;28;20037;-43
2022/01/04 10:23:16;;;;;;;26.52;4.13;;;;;;;8.33;88.74;99597.31;5008372;28;20022;-42
2022/01/04 10:25:43;;;;;;;21.77;2.42;;;;;;;8.39;88.02;99593.03;5013137;28;20064;-42
2022/01/04 10:28:08;;;;;;;18.48;2.17;;;;;;;8.41;87.67;99581.09;5011033;28;20026;-43
2022/01/04 10:30:34;;;;;;;18.08;1.92;;;;;;;8.34;87.91;99585.56;5013226;28;20034;-43
2022/01/04 10:33:07;;;;;;;15.80;1.55;;;;;;;8.30;88.46;99589.69;5012056;28;20129;-42
2022/01/04 10:35:44;;;;;;;9.77;1.65;;;;;;;8.20;87.99;99589.22;5009063;28;20597;-42
2022/01/04 10:38:28;;;;;;;19.00;2.17;;;;;;;8.12;88.21;99582.97;5012865;28;20454;-42
2022/01/04 10:41:06;;;;;;;14.45;1.35;;;;;;;8.09;88.85;99594.09;5006057;28;20128;-41
2022/01/04 10:43:46;;;;;;;16.38;1.25;;;;;;;8.03;88.32;99594.88;5008399;28;20442;-42
2022/01/04 10:46:13;;;;;;;11.68;1.40;;;;;;;8.00;88.23;99595.25;5011819;28;20029;-42
2022/01/04 10:48:43;;;;;;;12.85;1.65;;;;;;;7.98;87.50;99597.31;5012232;28;20033;-43
2022/01/04 10:51:12;;;;;;;9.35;1.67;;;;;;;7.89;88.19;99598.47;5011582;28;20108;-43
2022/01/04 10:53:40;;;;;;;15.27;1.75;;;;;;;7.85;88.64;99602.59;5012249;28;20105;-42
2022/01/04 10:56:11;;;;;;;16.48;1.60;;;;;;;7.87;88.06;99616.59;5012447;28;20026;-42
2022/01/04 10:58:46;;;;;;;17.65;1.48;;;;;;;7.83;88.18;99620.69;5012768;28;20026;-43
2022/01/04 11:01:21;;;;;;;13.32;1.95;;;;;;;7.85;87.44;99607.94;5010483;28;20142;-44
2022/01/04 11:03:49;;;;;;;17.33;1.20;;;;;;;7.81;87.54;99609.34;4994794;28;20036;-42
2022/01/04 11:06:35;;;;;;;3.67;0.82;;;;;;;7.86;86.40;99623.81;5012419;28;20034;-41
2022/01/04 11:09:01;;;;;;;11.55;1.30;;;;;;;7.90;86.20;99626.94;5012400;28;20022;-42
2022/01/04 11:11:26;;;;;;;13.82;1.35;;;;;;;7.89;87.25;99628.75;5012140;28;20037;-43
2022/01/04 11:13:52;;;;;;;11.90;1.70;;;;;;;7.83;87.04;99624.19;5011690;28;20088;-43
2022/01/04 11:16:23;;;;;;;8.75;1.30;;;;;;;7.89;87.64;99634.13;5013304;28;20030;-43
2022/01/04 11:18:51;;;;;;;6.30;1.15;;;;;;;7.90;87.97;99643.00;5009174;28;20036;-44
2022/01/04 11:21:20;;;;;;;20.35;5.13;;;;;;;7.98;87.59;99642.88;5009307;28;20029;-42
2022/01/04 11:23:46;;;;;;;27.80;6.50;;;;;;;7.95;88.66;99645.91;5011992;28;20022;-43
2022/01/04 11:26:12;;;;;;;17.42;2.35;;;;;;;7.97;88.86;99641.19;5009834;28;20120;-44
2022/01/04 11:28:42;;;;;;;12.20;1.98;;;;;;;8.02;88.05;99648.66;5010987;28;20029;-45
2022/01/04 11:31:38;;;;;;;8.48;1.25;;;;;;;8.07;88.47;99649.72;5012330;28;20073;-46
2022/01/04 11:34:04;;;;;;;16.65;2.75;;;;;;;8.07;88.23;99632.81;5012220;28;20549;-45